DLH586 EDDM-HECA
Flight info
| Callsign | DLH586 |
|---|---|
| Flight time | N/A |
| Altitude | 35000 |
| Route | KIRDI2Q KIRDI DCT ABRUK DCT KOPRY DCT SMI DCT ETIDA T390 SOPIS DCT ADORU UG80 EKI UW81 YAYLA UL854 KULAR UT39 TOMBI DCT KOMEZ M855 RASDA A16 MERPI |
| Aircraft | A21N/M-SDE2E3FGHIRWXY/LB1 |
Departure
| Time | 2026-04-30 20:05 |
|---|---|
| Airport | Munich Airport (EDDM) |
Arrival
| Time | N/A |
|---|---|
| Airport | Cairo International Airport (HECA) |
| Time | Latitude | Longitude | Altitude | Speed | Heading |
|---|---|---|---|---|---|
| 2026-04-30 19:24 | 48.35224 | 11.77710 | 1470 ft | 0 kts | 263° |
| 2026-04-30 19:53 | 48.35224 | 11.77711 | 1469 ft | 0 kts | 263° |
| 2026-04-30 19:53 | 48.35225 | 11.77721 | 1469 ft | 0 kts | 263° |
| 2026-04-30 19:54 | 48.35226 | 11.77740 | 1469 ft | 2 kts | 264° |
| 2026-04-30 19:54 | 48.35228 | 11.77759 | 1468 ft | 0 kts | 263° |
| 2026-04-30 19:54 | 48.35229 | 11.77771 | 1468 ft | 1 kts | 226° |
| 2026-04-30 19:54 | 48.35236 | 11.77777 | 1468 ft | 0 kts | 176° |
| 2026-04-30 19:55 | 48.35243 | 11.77775 | 1468 ft | 1 kts | 173° |
| 2026-04-30 19:55 | 48.35244 | 11.77774 | 1468 ft | 0 kts | 173° |
| 2026-04-30 19:58 | 48.35209 | 11.77780 | 1468 ft | 11 kts | 175° |
| 2026-04-30 19:58 | 48.35106 | 11.77797 | 1469 ft | 15 kts | 173° |
| 2026-04-30 19:59 | 48.34999 | 11.77822 | 1468 ft | 15 kts | 165° |
| 2026-04-30 19:59 | 48.34891 | 11.77860 | 1468 ft | 16 kts | 172° |
| 2026-04-30 19:59 | 48.34667 | 11.77861 | 1468 ft | 15 kts | 237° |
| 2026-04-30 20:00 | 48.34652 | 11.77711 | 1471 ft | 13 kts | 264° |
| 2026-04-30 20:00 | 48.34641 | 11.77560 | 1471 ft | 16 kts | 263° |
| 2026-04-30 20:00 | 48.34626 | 11.77384 | 1471 ft | 17 kts | 262° |
| 2026-04-30 20:00 | 48.34611 | 11.77205 | 1471 ft | 18 kts | 264° |
| 2026-04-30 20:01 | 48.34576 | 11.76718 | 1473 ft | 23 kts | 263° |
| 2026-04-30 20:01 | 48.34557 | 11.76486 | 1477 ft | 20 kts | 263° |
| 2026-04-30 20:01 | 48.34540 | 11.76273 | 1479 ft | 22 kts | 264° |
| 2026-04-30 20:02 | 48.34504 | 11.75790 | 1481 ft | 26 kts | 263° |
| 2026-04-30 20:02 | 48.34477 | 11.75470 | 1482 ft | 32 kts | 263° |
| 2026-04-30 20:03 | 48.34306 | 11.75237 | 1484 ft | 19 kts | 173° |
| 2026-04-30 20:03 | 48.34170 | 11.75258 | 1481 ft | 20 kts | 173° |
| 2026-04-30 20:03 | 48.34084 | 11.75330 | 1481 ft | 13 kts | 91° |
| 2026-04-30 20:03 | 48.34087 | 11.75385 | 1481 ft | 0 kts | 84° |
| 2026-04-30 20:04 | 48.34114 | 11.75729 | 1482 ft | 73 kts | 83° |
| 2026-04-30 20:04 | 48.34201 | 11.76870 | 1481 ft | 142 kts | 83° |
| 2026-04-30 20:04 | 48.34325 | 11.78541 | 1811 ft | 167 kts | 85° |
| 2026-04-30 20:05 | 48.34558 | 11.81849 | 3314 ft | 153 kts | 84° |
| 2026-04-30 20:05 | 48.34683 | 11.83473 | 3701 ft | 162 kts | 84° |
| 2026-04-30 20:05 | 48.34965 | 11.87125 | 4254 ft | 193 kts | 84° |
| 2026-04-30 20:06 | 48.35130 | 11.89239 | 4498 ft | 214 kts | 84° |
| 2026-04-30 20:06 | 48.35300 | 11.91498 | 5012 ft | 223 kts | 86° |
| 2026-04-30 20:06 | 48.35163 | 11.93850 | 5643 ft | 230 kts | 102° |
| 2026-04-30 20:06 | 48.34606 | 11.96152 | 6080 ft | 245 kts | 111° |
| 2026-04-30 20:07 | 48.33900 | 11.98565 | 6565 ft | 257 kts | 112° |
| 2026-04-30 20:07 | 48.33215 | 12.01052 | 7240 ft | 260 kts | 105° |
| 2026-04-30 20:07 | 48.32423 | 12.06334 | 8642 ft | 264 kts | 99° |
| 2026-04-30 20:08 | 48.32046 | 12.09069 | 9286 ft | 268 kts | 99° |
| 2026-04-30 20:08 | 48.31660 | 12.11792 | 9887 ft | 272 kts | 99° |
| 2026-04-30 20:08 | 48.31253 | 12.14563 | 10514 ft | 275 kts | 99° |
| 2026-04-30 20:08 | 48.30830 | 12.17403 | 10939 ft | 286 kts | 99° |
| 2026-04-30 20:09 | 48.30381 | 12.20405 | 11224 ft | 301 kts | 99° |
| 2026-04-30 20:09 | 48.29910 | 12.23517 | 11494 ft | 315 kts | 100° |
| 2026-04-30 20:09 | 48.28890 | 12.30166 | 12264 ft | 334 kts | 99° |
| 2026-04-30 20:10 | 48.27839 | 12.36950 | 13424 ft | 339 kts | 99° |
| 2026-04-30 20:10 | 48.27304 | 12.40394 | 13959 ft | 342 kts | 99° |
| 2026-04-30 20:10 | 48.26758 | 12.43908 | 14501 ft | 345 kts | 99° |
| 2026-04-30 20:11 | 48.25665 | 12.50915 | 15585 ft | 349 kts | 98° |
| 2026-04-30 20:11 | 48.25114 | 12.54453 | 16095 ft | 351 kts | 98° |
| 2026-04-30 20:11 | 48.24553 | 12.58034 | 16600 ft | 353 kts | 98° |
| 2026-04-30 20:12 | 48.23430 | 12.65186 | 17580 ft | 357 kts | 98° |
| 2026-04-30 20:12 | 48.22858 | 12.68806 | 18048 ft | 359 kts | 98° |
| 2026-04-30 20:12 | 48.22280 | 12.72462 | 18499 ft | 362 kts | 98° |
| 2026-04-30 20:13 | 48.21698 | 12.76142 | 18964 ft | 364 kts | 98° |
| 2026-04-30 20:13 | 48.21040 | 12.79812 | 19421 ft | 368 kts | 102° |
| 2026-04-30 20:13 | 48.20155 | 12.83413 | 19879 ft | 373 kts | 107° |
| 2026-04-30 20:13 | 48.19023 | 12.86951 | 20319 ft | 378 kts | 111° |
| 2026-04-30 20:14 | 48.17773 | 12.90432 | 20756 ft | 380 kts | 112° |
| 2026-04-30 20:14 | 48.16510 | 12.93901 | 21141 ft | 383 kts | 112° |
| 2026-04-30 20:14 | 48.15239 | 12.97377 | 21541 ft | 385 kts | 111° |
| 2026-04-30 20:14 | 48.13948 | 13.00909 | 21948 ft | 386 kts | 111° |
| 2026-04-30 20:15 | 48.12668 | 13.04405 | 22356 ft | 388 kts | 111° |
| 2026-04-30 20:15 | 48.11372 | 13.07956 | 22734 ft | 389 kts | 111° |
| 2026-04-30 20:15 | 48.10066 | 13.11517 | 23137 ft | 390 kts | 111° |
| 2026-04-30 20:15 | 48.08759 | 13.15084 | 23508 ft | 392 kts | 111° |
| 2026-04-30 20:16 | 48.07462 | 13.18618 | 23865 ft | 393 kts | 111° |
| 2026-04-30 20:16 | 48.06135 | 13.22236 | 24204 ft | 395 kts | 110° |
| 2026-04-30 20:16 | 48.04820 | 13.25802 | 24516 ft | 397 kts | 110° |
| 2026-04-30 20:16 | 48.03483 | 13.29438 | 24835 ft | 399 kts | 110° |
| 2026-04-30 20:17 | 48.02150 | 13.33052 | 25185 ft | 399 kts | 110° |
| 2026-04-30 20:17 | 48.00796 | 13.36717 | 25494 ft | 401 kts | 110° |
| 2026-04-30 20:17 | 47.99450 | 13.40358 | 25798 ft | 402 kts | 110° |
| 2026-04-30 20:17 | 47.98098 | 13.44007 | 26112 ft | 403 kts | 110° |
| 2026-04-30 20:18 | 47.96757 | 13.47618 | 26401 ft | 405 kts | 110° |
| 2026-04-30 20:18 | 47.95387 | 13.51315 | 26652 ft | 407 kts | 110° |
| 2026-04-30 20:18 | 47.94012 | 13.55008 | 26915 ft | 408 kts | 109° |
| 2026-04-30 20:18 | 47.92638 | 13.58698 | 27212 ft | 409 kts | 109° |
| 2026-04-30 20:19 | 47.91258 | 13.62398 | 27515 ft | 409 kts | 109° |
| 2026-04-30 20:19 | 47.89894 | 13.66049 | 27764 ft | 410 kts | 110° |
| 2026-04-30 20:19 | 47.88497 | 13.69785 | 27995 ft | 412 kts | 110° |
| 2026-04-30 20:19 | 47.87110 | 13.73498 | 28183 ft | 414 kts | 110° |
| 2026-04-30 20:20 | 47.85697 | 13.77270 | 28397 ft | 416 kts | 110° |
| 2026-04-30 20:20 | 47.84279 | 13.81040 | 28636 ft | 418 kts | 109° |
| 2026-04-30 20:20 | 47.82870 | 13.84782 | 28866 ft | 418 kts | 109° |
| 2026-04-30 20:20 | 47.81444 | 13.88575 | 29105 ft | 419 kts | 109° |
| 2026-04-30 20:21 | 47.80034 | 13.92318 | 29331 ft | 420 kts | 109° |
| 2026-04-30 20:21 | 47.78610 | 13.96079 | 29612 ft | 420 kts | 109° |
| 2026-04-30 20:21 | 47.77177 | 13.99860 | 29923 ft | 419 kts | 109° |
| 2026-04-30 20:21 | 47.75741 | 14.03645 | 30294 ft | 416 kts | 109° |
| 2026-04-30 20:22 | 47.74344 | 14.07322 | 30596 ft | 415 kts | 109° |
| 2026-04-30 20:22 | 47.72919 | 14.11084 | 30858 ft | 415 kts | 109° |
| 2026-04-30 20:22 | 47.71517 | 14.14776 | 31065 ft | 416 kts | 109° |
| 2026-04-30 20:22 | 47.70097 | 14.18517 | 31190 ft | 418 kts | 109° |
| 2026-04-30 20:23 | 47.68662 | 14.22286 | 31375 ft | 419 kts | 109° |
| 2026-04-30 20:23 | 47.67230 | 14.26036 | 31617 ft | 419 kts | 109° |
| 2026-04-30 20:23 | 47.65798 | 14.29772 | 31851 ft | 418 kts | 109° |
| 2026-04-30 20:23 | 47.64376 | 14.33489 | 32078 ft | 418 kts | 109° |
| 2026-04-30 20:24 | 47.62929 | 14.37262 | 32301 ft | 417 kts | 110° |
| 2026-04-30 20:24 | 47.61510 | 14.40955 | 32467 ft | 419 kts | 110° |
| 2026-04-30 20:24 | 47.60060 | 14.44730 | 32648 ft | 420 kts | 110° |
| 2026-04-30 20:24 | 47.58627 | 14.48453 | 32829 ft | 420 kts | 110° |
| 2026-04-30 20:25 | 47.55736 | 14.55937 | 33249 ft | 420 kts | 110° |
| 2026-04-30 20:25 | 47.54283 | 14.59697 | 33417 ft | 421 kts | 110° |
| 2026-04-30 20:26 | 47.51353 | 14.67261 | 33623 ft | 425 kts | 111° |
| 2026-04-30 20:26 | 47.48426 | 14.74799 | 33826 ft | 429 kts | 112° |
| 2026-04-30 20:26 | 47.46923 | 14.78656 | 33976 ft | 429 kts | 112° |
| 2026-04-30 20:27 | 47.43956 | 14.86248 | 34222 ft | 431 kts | 112° |
| 2026-04-30 20:27 | 47.40957 | 14.93914 | 34452 ft | 434 kts | 112° |
| 2026-04-30 20:28 | 47.37691 | 15.01458 | 34750 ft | 441 kts | 118° |
| 2026-04-30 20:28 | 47.33835 | 15.08594 | 34980 ft | 448 kts | 123° |
| 2026-04-30 20:29 | 47.29835 | 15.15650 | 35189 ft | 451 kts | 123° |
| 2026-04-30 20:30 | 47.23797 | 15.26275 | 35368 ft | 453 kts | 123° |
| 2026-04-30 20:31 | 47.11662 | 15.47518 | 35394 ft | 454 kts | 123° |
| 2026-04-30 20:32 | 47.01504 | 15.65177 | 35402 ft | 454 kts | 125° |
| 2026-04-30 20:33 | 46.95389 | 15.75756 | 35397 ft | 455 kts | 125° |
| 2026-04-30 20:34 | 46.89245 | 15.86344 | 35393 ft | 456 kts | 125° |
| 2026-04-30 20:35 | 46.83093 | 15.96900 | 35405 ft | 457 kts | 125° |
| 2026-04-30 20:35 | 46.76910 | 16.07471 | 35405 ft | 457 kts | 126° |
| 2026-04-30 20:36 | 46.72796 | 16.14485 | 35396 ft | 459 kts | 126° |
| 2026-04-30 20:37 | 46.66579 | 16.25045 | 35395 ft | 459 kts | 126° |
| 2026-04-30 20:37 | 46.62436 | 16.32063 | 35396 ft | 459 kts | 126° |
| 2026-04-30 20:38 | 46.58286 | 16.39070 | 35381 ft | 460 kts | 126° |
| 2026-04-30 20:38 | 46.54087 | 16.46142 | 35393 ft | 460 kts | 126° |
| 2026-04-30 20:39 | 46.47840 | 16.56636 | 35371 ft | 461 kts | 126° |
| 2026-04-30 20:40 | 46.41546 | 16.67165 | 35371 ft | 462 kts | 127° |
| 2026-04-30 20:40 | 46.37335 | 16.74191 | 35370 ft | 463 kts | 127° |
| 2026-04-30 20:41 | 46.31007 | 16.84709 | 35377 ft | 463 kts | 127° |
| 2026-04-30 20:41 | 46.26786 | 16.91703 | 35378 ft | 464 kts | 127° |
| 2026-04-30 20:42 | 46.22742 | 16.98942 | 35378 ft | 461 kts | 122° |
| 2026-04-30 20:43 | 46.17202 | 17.10491 | 35376 ft | 461 kts | 121° |
| 2026-04-30 20:43 | 46.13643 | 17.17911 | 35377 ft | 462 kts | 121° |
| 2026-04-30 20:44 | 46.08159 | 17.29298 | 35368 ft | 461 kts | 121° |
| 2026-04-30 20:45 | 46.00827 | 17.44439 | 35370 ft | 463 kts | 121° |
| 2026-04-30 20:45 | 45.97160 | 17.51986 | 35372 ft | 463 kts | 121° |
| 2026-04-30 20:46 | 45.89784 | 17.67094 | 35379 ft | 463 kts | 122° |
| 2026-04-30 20:47 | 45.84212 | 17.78455 | 35379 ft | 464 kts | 122° |
| 2026-04-30 20:48 | 45.78663 | 17.89729 | 35375 ft | 465 kts | 122° |
| 2026-04-30 20:48 | 45.74923 | 17.97306 | 35375 ft | 466 kts | 123° |
| 2026-04-30 20:49 | 45.71199 | 18.04820 | 35375 ft | 466 kts | 123° |
| 2026-04-30 20:50 | 45.65565 | 18.16155 | 35371 ft | 466 kts | 123° |
| 2026-04-30 20:50 | 45.61826 | 18.23655 | 35371 ft | 467 kts | 123° |
| 2026-04-30 20:51 | 45.58049 | 18.31208 | 35362 ft | 467 kts | 123° |
| 2026-04-30 20:51 | 45.52396 | 18.42485 | 35352 ft | 468 kts | 123° |
| 2026-04-30 20:52 | 45.48602 | 18.50020 | 35352 ft | 468 kts | 123° |
| 2026-04-30 20:53 | 45.42905 | 18.61300 | 35358 ft | 469 kts | 123° |
| 2026-04-30 20:53 | 45.39090 | 18.68833 | 35352 ft | 468 kts | 124° |
| 2026-04-30 20:54 | 45.33400 | 18.80028 | 35352 ft | 468 kts | 124° |
| 2026-04-30 20:55 | 45.27683 | 18.91232 | 35353 ft | 470 kts | 124° |
| 2026-04-30 20:55 | 45.23840 | 18.98738 | 35352 ft | 470 kts | 124° |
| 2026-04-30 20:56 | 45.18078 | 19.09960 | 35349 ft | 470 kts | 124° |
| 2026-04-30 20:57 | 45.12327 | 19.21114 | 35344 ft | 469 kts | 125° |
| 2026-04-30 20:57 | 45.08472 | 19.28568 | 35342 ft | 469 kts | 125° |
| 2026-04-30 20:58 | 45.02707 | 19.39676 | 35343 ft | 469 kts | 125° |
| 2026-04-30 20:58 | 44.99124 | 19.47343 | 35340 ft | 469 kts | 119° |
| 2026-04-30 20:59 | 44.94129 | 19.59191 | 35342 ft | 470 kts | 119° |
| 2026-04-30 21:00 | 44.87452 | 19.74953 | 35333 ft | 469 kts | 120° |
| 2026-04-30 21:01 | 44.82425 | 19.86755 | 35336 ft | 469 kts | 120° |
| 2026-04-30 21:02 | 44.77396 | 19.98511 | 35332 ft | 469 kts | 120° |
| 2026-04-30 21:02 | 44.74033 | 20.06349 | 35328 ft | 470 kts | 120° |
| 2026-04-30 21:03 | 44.70655 | 20.14199 | 35331 ft | 471 kts | 120° |
| 2026-04-30 21:03 | 44.67257 | 20.22068 | 35333 ft | 471 kts | 120° |
| 2026-04-30 21:04 | 44.63871 | 20.29892 | 35336 ft | 471 kts | 120° |
| 2026-04-30 21:04 | 44.58761 | 20.41655 | 35331 ft | 471 kts | 121° |
| 2026-04-30 21:05 | 44.55360 | 20.49458 | 35327 ft | 472 kts | 121° |
| 2026-04-30 21:05 | 44.51955 | 20.57251 | 35326 ft | 472 kts | 121° |
| 2026-04-30 21:06 | 44.48513 | 20.65105 | 35321 ft | 472 kts | 121° |
| 2026-04-30 21:06 | 44.45097 | 20.72882 | 35318 ft | 473 kts | 121° |
| 2026-04-30 21:07 | 44.41655 | 20.80692 | 35316 ft | 473 kts | 121° |
| 2026-04-30 21:07 | 44.38208 | 20.88493 | 35316 ft | 472 kts | 121° |
| 2026-04-30 21:08 | 44.34748 | 20.96304 | 35318 ft | 473 kts | 121° |
| 2026-04-30 21:08 | 44.31285 | 21.04098 | 35315 ft | 474 kts | 121° |
| 2026-04-30 21:09 | 44.27823 | 21.11874 | 35315 ft | 475 kts | 121° |
| 2026-04-30 21:09 | 44.24338 | 21.19680 | 35315 ft | 475 kts | 122° |
| 2026-04-30 21:10 | 44.20853 | 21.27463 | 35321 ft | 475 kts | 122° |
| 2026-04-30 21:10 | 44.17358 | 21.35245 | 35324 ft | 475 kts | 122° |
| 2026-04-30 21:11 | 44.13845 | 21.43047 | 35320 ft | 475 kts | 122° |
| 2026-04-30 21:11 | 44.10347 | 21.50796 | 35320 ft | 476 kts | 122° |
| 2026-04-30 21:12 | 44.06814 | 21.58602 | 35316 ft | 477 kts | 122° |
| 2026-04-30 21:12 | 44.03292 | 21.66363 | 35295 ft | 478 kts | 123° |
| 2026-04-30 21:13 | 43.99752 | 21.74140 | 35273 ft | 478 kts | 123° |
| 2026-04-30 21:13 | 43.96190 | 21.81946 | 35265 ft | 478 kts | 123° |
| 2026-04-30 21:14 | 43.92624 | 21.89743 | 35273 ft | 480 kts | 123° |
| 2026-04-30 21:14 | 43.89049 | 21.97536 | 35290 ft | 481 kts | 123° |
| 2026-04-30 21:15 | 43.85449 | 22.05361 | 35301 ft | 482 kts | 123° |
| 2026-04-30 21:15 | 43.81860 | 22.13140 | 35307 ft | 480 kts | 123° |
| 2026-04-30 21:16 | 43.78264 | 22.20922 | 35307 ft | 481 kts | 123° |
| 2026-04-30 21:16 | 43.74668 | 22.28682 | 35308 ft | 481 kts | 123° |
| 2026-04-30 21:17 | 43.71056 | 22.36449 | 35309 ft | 482 kts | 123° |
| 2026-04-30 21:17 | 43.67619 | 22.44358 | 35302 ft | 482 kts | 118° |
| 2026-04-30 21:18 | 43.64586 | 22.52598 | 35293 ft | 483 kts | 117° |
| 2026-04-30 21:18 | 43.61571 | 22.60852 | 35293 ft | 484 kts | 117° |
| 2026-04-30 21:19 | 43.58536 | 22.69117 | 35298 ft | 484 kts | 118° |
| 2026-04-30 21:19 | 43.55506 | 22.77331 | 35309 ft | 484 kts | 118° |
| 2026-04-30 21:20 | 43.52446 | 22.85600 | 35315 ft | 485 kts | 118° |
| 2026-04-30 21:20 | 43.49390 | 22.93828 | 35325 ft | 484 kts | 118° |
| 2026-04-30 21:21 | 43.46326 | 23.02058 | 35330 ft | 485 kts | 118° |
| 2026-04-30 21:22 | 43.41682 | 23.14482 | 35331 ft | 486 kts | 118° |
| 2026-04-30 21:23 | 43.35509 | 23.30915 | 35341 ft | 487 kts | 118° |
| 2026-04-30 21:23 | 43.30845 | 23.43272 | 35339 ft | 488 kts | 119° |
| 2026-04-30 21:24 | 43.27733 | 23.51483 | 35341 ft | 488 kts | 119° |
| 2026-04-30 21:24 | 43.24603 | 23.59719 | 35335 ft | 488 kts | 119° |
| 2026-04-30 21:25 | 43.19899 | 23.72043 | 35326 ft | 488 kts | 120° |
| 2026-04-30 21:26 | 43.15165 | 23.84405 | 35323 ft | 490 kts | 120° |
| 2026-04-30 21:27 | 43.10414 | 23.96749 | 35322 ft | 491 kts | 120° |
| 2026-04-30 21:27 | 43.07229 | 24.05001 | 35315 ft | 492 kts | 120° |
| 2026-04-30 21:28 | 43.02435 | 24.17367 | 35309 ft | 492 kts | 120° |
| 2026-04-30 21:29 | 42.97629 | 24.29717 | 35289 ft | 493 kts | 121° |
| 2026-04-30 21:30 | 42.89588 | 24.50262 | 35273 ft | 493 kts | 121° |
| 2026-04-30 21:31 | 42.80928 | 24.70361 | 35200 ft | 492 kts | 128° |
| 2026-04-30 21:32 | 42.75251 | 24.81937 | 35176 ft | 493 kts | 128° |
| 2026-04-30 21:32 | 42.71447 | 24.89691 | 35186 ft | 493 kts | 128° |
| 2026-04-30 21:33 | 42.65732 | 25.01321 | 35182 ft | 493 kts | 128° |
| 2026-04-30 21:34 | 42.61932 | 25.09029 | 35184 ft | 494 kts | 128° |
| 2026-04-30 21:34 | 42.56197 | 25.20620 | 35200 ft | 495 kts | 128° |
| 2026-04-30 21:35 | 42.52361 | 25.28348 | 35208 ft | 497 kts | 128° |
| 2026-04-30 21:35 | 42.48515 | 25.36081 | 35228 ft | 496 kts | 128° |
| 2026-04-30 21:36 | 42.44655 | 25.43822 | 35247 ft | 497 kts | 128° |
| 2026-04-30 21:37 | 42.36933 | 25.59245 | 35265 ft | 497 kts | 129° |
| 2026-04-30 21:37 | 42.33059 | 25.66955 | 35280 ft | 497 kts | 129° |
| 2026-04-30 21:38 | 42.29173 | 25.74668 | 35286 ft | 497 kts | 130° |
| 2026-04-30 21:38 | 42.25286 | 25.82359 | 35286 ft | 499 kts | 130° |
| 2026-04-30 21:39 | 42.21386 | 25.90064 | 35273 ft | 499 kts | 130° |
| 2026-04-30 21:39 | 42.17462 | 25.97788 | 35273 ft | 500 kts | 129° |
| 2026-04-30 21:40 | 42.13527 | 26.05520 | 35266 ft | 501 kts | 130° |
| 2026-04-30 21:40 | 42.09609 | 26.13200 | 35247 ft | 500 kts | 130° |
| 2026-04-30 21:41 | 42.05666 | 26.20905 | 35220 ft | 501 kts | 130° |
| 2026-04-30 21:41 | 42.01730 | 26.28578 | 35188 ft | 502 kts | 130° |
| 2026-04-30 21:42 | 41.97777 | 26.36269 | 35191 ft | 502 kts | 130° |
| 2026-04-30 21:42 | 41.93827 | 26.43937 | 35204 ft | 501 kts | 130° |
| 2026-04-30 21:43 | 41.89707 | 26.51413 | 35220 ft | 494 kts | 135° |
| 2026-04-30 21:43 | 41.85047 | 26.58042 | 35091 ft | 487 kts | 143° |
| 2026-04-30 21:44 | 41.79863 | 26.63767 | 35185 ft | 479 kts | 151° |
| 2026-04-30 21:44 | 41.74429 | 26.68870 | 35198 ft | 478 kts | 153° |
| 2026-04-30 21:45 | 41.68980 | 26.73980 | 35211 ft | 479 kts | 152° |
| 2026-04-30 21:45 | 41.63564 | 26.79075 | 35211 ft | 477 kts | 152° |
| 2026-04-30 21:46 | 41.58144 | 26.84173 | 35234 ft | 477 kts | 152° |
| 2026-04-30 21:46 | 41.52734 | 26.89251 | 35206 ft | 476 kts | 152° |
| 2026-04-30 21:47 | 41.47330 | 26.94311 | 35211 ft | 475 kts | 152° |
| 2026-04-30 21:47 | 41.41938 | 26.99341 | 35198 ft | 475 kts | 152° |
| 2026-04-30 21:48 | 41.36533 | 27.04370 | 35185 ft | 474 kts | 152° |
| 2026-04-30 21:48 | 41.31123 | 27.09398 | 35180 ft | 473 kts | 152° |
| 2026-04-30 21:49 | 41.25742 | 27.14393 | 35173 ft | 473 kts | 152° |
| 2026-04-30 21:49 | 41.20359 | 27.19375 | 35175 ft | 473 kts | 152° |
| 2026-04-30 21:50 | 41.14977 | 27.24340 | 35163 ft | 472 kts | 152° |
| 2026-04-30 21:50 | 41.09595 | 27.29297 | 35160 ft | 471 kts | 152° |
| 2026-04-30 21:51 | 41.04236 | 27.34230 | 35151 ft | 471 kts | 152° |
| 2026-04-30 21:51 | 40.98815 | 27.39166 | 35139 ft | 469 kts | 154° |
| 2026-04-30 21:52 | 40.93206 | 27.43411 | 35127 ft | 462 kts | 160° |
| 2026-04-30 21:52 | 40.87366 | 27.46748 | 35130 ft | 459 kts | 165° |
| 2026-04-30 21:53 | 40.81457 | 27.49869 | 35127 ft | 458 kts | 165° |
| 2026-04-30 21:53 | 40.75555 | 27.52988 | 35122 ft | 458 kts | 165° |
| 2026-04-30 21:54 | 40.69622 | 27.56127 | 35124 ft | 458 kts | 165° |
| 2026-04-30 21:54 | 40.63742 | 27.59238 | 35116 ft | 457 kts | 164° |
| 2026-04-30 21:55 | 40.57845 | 27.62350 | 35108 ft | 458 kts | 164° |
| 2026-04-30 21:55 | 40.51934 | 27.65461 | 35098 ft | 458 kts | 165° |
| 2026-04-30 21:56 | 40.46021 | 27.68571 | 35087 ft | 457 kts | 165° |
| 2026-04-30 21:56 | 40.40143 | 27.71656 | 35085 ft | 457 kts | 165° |
| 2026-04-30 21:57 | 40.34240 | 27.74745 | 35085 ft | 457 kts | 165° |
| 2026-04-30 21:57 | 40.28316 | 27.77843 | 35159 ft | 460 kts | 164° |
| 2026-04-30 21:58 | 40.25364 | 27.79385 | 35370 ft | 459 kts | 164° |
| 2026-04-30 21:58 | 40.22417 | 27.80922 | 35601 ft | 457 kts | 164° |
| 2026-04-30 21:58 | 40.19472 | 27.82457 | 35793 ft | 456 kts | 164° |
| 2026-04-30 21:58 | 40.16520 | 27.83994 | 35968 ft | 456 kts | 164° |
| 2026-04-30 21:59 | 40.13580 | 27.85523 | 36125 ft | 456 kts | 164° |
| 2026-04-30 21:59 | 40.10650 | 27.87045 | 36281 ft | 456 kts | 164° |
| 2026-04-30 21:59 | 40.07678 | 27.88587 | 36423 ft | 456 kts | 163° |
| 2026-04-30 22:00 | 40.01812 | 27.91629 | 36770 ft | 456 kts | 163° |
| 2026-04-30 22:00 | 39.95948 | 27.94667 | 37067 ft | 456 kts | 163° |
| 2026-04-30 22:00 | 39.92998 | 27.96193 | 37070 ft | 457 kts | 163° |
| 2026-04-30 22:01 | 39.87073 | 27.99252 | 37065 ft | 456 kts | 163° |
| 2026-04-30 22:01 | 39.81181 | 28.02220 | 37066 ft | 455 kts | 164° |
| 2026-04-30 22:02 | 39.75260 | 28.05165 | 37070 ft | 455 kts | 164° |
| 2026-04-30 22:02 | 39.69366 | 28.08099 | 37064 ft | 455 kts | 164° |
| 2026-04-30 22:03 | 39.63451 | 28.11043 | 37057 ft | 456 kts | 164° |
| 2026-04-30 22:03 | 39.57536 | 28.13982 | 37051 ft | 456 kts | 163° |
| 2026-04-30 22:04 | 39.51599 | 28.16929 | 37053 ft | 456 kts | 163° |
| 2026-04-30 22:05 | 39.42702 | 28.21332 | 37042 ft | 456 kts | 163° |
| 2026-04-30 22:05 | 39.36758 | 28.24271 | 37041 ft | 456 kts | 163° |
| 2026-04-30 22:06 | 39.30860 | 28.27178 | 37033 ft | 456 kts | 163° |
| 2026-04-30 22:06 | 39.21943 | 28.31539 | 37028 ft | 456 kts | 163° |
| 2026-04-30 22:07 | 39.16009 | 28.34435 | 37026 ft | 456 kts | 163° |
| 2026-04-30 22:07 | 39.10075 | 28.37327 | 37025 ft | 456 kts | 163° |
| 2026-04-30 22:08 | 39.04143 | 28.40216 | 37028 ft | 456 kts | 163° |
| 2026-04-30 22:08 | 38.98264 | 28.43172 | 37032 ft | 456 kts | 162° |
| 2026-04-30 22:09 | 38.92343 | 28.46166 | 37024 ft | 457 kts | 162° |
| 2026-04-30 22:09 | 38.86400 | 28.49160 | 37023 ft | 457 kts | 162° |
| 2026-04-30 22:10 | 38.80473 | 28.52139 | 37021 ft | 457 kts | 162° |
| 2026-04-30 22:10 | 38.74576 | 28.55096 | 37020 ft | 457 kts | 162° |
| 2026-04-30 22:11 | 38.65700 | 28.59539 | 37025 ft | 458 kts | 162° |
| 2026-04-30 22:12 | 38.59840 | 28.62758 | 37026 ft | 460 kts | 157° |
| 2026-04-30 22:12 | 38.54249 | 28.66818 | 37031 ft | 464 kts | 150° |
| 2026-04-30 22:13 | 38.48961 | 28.71510 | 37032 ft | 465 kts | 148° |
| 2026-04-30 22:13 | 38.43658 | 28.76276 | 37029 ft | 465 kts | 148° |
| 2026-04-30 22:14 | 38.38405 | 28.80978 | 37030 ft | 465 kts | 148° |
| 2026-04-30 22:14 | 38.33116 | 28.85696 | 37025 ft | 465 kts | 148° |
| 2026-04-30 22:15 | 38.27821 | 28.90410 | 37027 ft | 466 kts | 148° |
| 2026-04-30 22:15 | 38.22514 | 28.95122 | 37027 ft | 466 kts | 148° |
| 2026-04-30 22:16 | 38.17197 | 28.99838 | 37023 ft | 466 kts | 148° |
| 2026-04-30 22:17 | 38.06568 | 29.09238 | 37023 ft | 466 kts | 148° |
| 2026-04-30 22:17 | 37.98624 | 29.16242 | 37034 ft | 465 kts | 148° |
| 2026-04-30 22:18 | 37.90630 | 29.23276 | 37043 ft | 466 kts | 148° |
| 2026-04-30 22:19 | 37.82651 | 29.30272 | 37045 ft | 466 kts | 148° |
| 2026-04-30 22:20 | 37.74672 | 29.37243 | 37039 ft | 466 kts | 148° |
| 2026-04-30 22:20 | 37.66698 | 29.44200 | 37049 ft | 466 kts | 148° |
| 2026-04-30 22:21 | 37.61369 | 29.48839 | 37055 ft | 466 kts | 148° |
| 2026-04-30 22:21 | 37.56054 | 29.53460 | 37067 ft | 466 kts | 148° |
| 2026-04-30 22:22 | 37.50713 | 29.58098 | 37078 ft | 466 kts | 148° |
| 2026-04-30 22:22 | 37.45357 | 29.62739 | 37083 ft | 467 kts | 148° |
| 2026-04-30 22:23 | 37.40030 | 29.67347 | 37081 ft | 467 kts | 149° |
| 2026-04-30 22:23 | 37.34693 | 29.71953 | 37086 ft | 467 kts | 149° |
| 2026-04-30 22:24 | 37.29343 | 29.76562 | 37099 ft | 467 kts | 149° |
| 2026-04-30 22:24 | 37.23987 | 29.81175 | 37099 ft | 467 kts | 149° |
| 2026-04-30 22:25 | 37.18626 | 29.85787 | 37104 ft | 467 kts | 149° |
| 2026-04-30 22:25 | 37.13267 | 29.90388 | 37111 ft | 466 kts | 149° |
| 2026-04-30 22:26 | 37.05265 | 29.97241 | 37127 ft | 466 kts | 149° |
| 2026-04-30 22:27 | 36.99888 | 30.01843 | 37120 ft | 467 kts | 149° |
| 2026-04-30 22:27 | 36.91867 | 30.08699 | 37115 ft | 468 kts | 149° |
| 2026-04-30 22:28 | 36.83794 | 30.15573 | 37121 ft | 468 kts | 149° |
| 2026-04-30 22:29 | 36.73056 | 30.24664 | 37124 ft | 468 kts | 149° |
| 2026-04-30 22:31 | 36.54179 | 30.40586 | 37038 ft | 469 kts | 149° |
| 2026-04-30 22:32 | 36.40681 | 30.51918 | 36998 ft | 469 kts | 149° |
| 2026-04-30 22:33 | 36.27177 | 30.63208 | 36991 ft | 470 kts | 149° |
| 2026-04-30 22:35 | 36.13641 | 30.74478 | 36981 ft | 471 kts | 150° |
| 2026-04-30 22:36 | 36.02039 | 30.81423 | 36972 ft | 459 kts | 169° |
| 2026-04-30 22:36 | 35.98904 | 30.82289 | 36976 ft | 456 kts | 175° |
| 2026-04-30 22:37 | 35.86369 | 30.83234 | 36981 ft | 451 kts | 183° |
| 2026-04-30 22:38 | 35.73837 | 30.83749 | 36975 ft | 452 kts | 183° |
| 2026-04-30 22:39 | 35.64413 | 30.84157 | 36994 ft | 452 kts | 183° |
| 2026-04-30 22:40 | 35.45551 | 30.84977 | 36990 ft | 453 kts | 184° |
| 2026-04-30 22:41 | 35.29784 | 30.85659 | 36995 ft | 454 kts | 184° |
| 2026-04-30 22:43 | 35.10874 | 30.86475 | 36991 ft | 454 kts | 184° |
| 2026-04-30 22:44 | 34.98235 | 30.87016 | 36988 ft | 455 kts | 184° |
| 2026-04-30 22:45 | 34.79272 | 30.87829 | 36999 ft | 455 kts | 184° |
| 2026-04-30 22:47 | 34.60241 | 30.88639 | 36998 ft | 456 kts | 185° |
| 2026-04-30 22:48 | 34.47529 | 30.89181 | 36995 ft | 457 kts | 185° |
| 2026-04-30 22:49 | 34.28473 | 30.89988 | 36996 ft | 457 kts | 185° |
| 2026-04-30 22:51 | 34.09388 | 30.90989 | 36999 ft | 459 kts | 185° |
| 2026-04-30 22:52 | 33.99799 | 30.91524 | 36999 ft | 459 kts | 185° |
| 2026-04-30 22:53 | 33.87038 | 30.92102 | 36998 ft | 459 kts | 186° |
| 2026-04-30 22:53 | 33.77442 | 30.92450 | 36999 ft | 459 kts | 186° |
| 2026-04-30 22:55 | 33.61508 | 30.93052 | 36999 ft | 459 kts | 186° |
| 2026-04-30 22:56 | 33.48704 | 30.93538 | 36998 ft | 459 kts | 186° |
| 2026-04-30 22:57 | 33.32720 | 30.94140 | 37000 ft | 460 kts | 186° |
| 2026-04-30 22:58 | 33.19934 | 30.94623 | 36999 ft | 460 kts | 186° |
| 2026-04-30 22:59 | 33.00656 | 30.96030 | 36999 ft | 465 kts | 182° |